createdAt,value
2022-11-05T00:00:27.136Z,54.66
2022-11-05T00:01:29.041Z,54.68
2022-11-05T00:02:30.923Z,54.74
2022-11-05T00:03:32.954Z,54.76
2022-11-05T00:04:34.776Z,54.72
2022-11-05T00:05:36.599Z,54.69
2022-11-05T00:06:38.527Z,54.70
2022-11-05T00:07:40.426Z,54.69
2022-11-05T00:08:42.504Z,54.71
2022-11-05T00:09:44.326Z,54.74
2022-11-05T00:10:46.158Z,54.75
2022-11-05T00:11:47.986Z,54.76
2022-11-05T00:12:49.856Z,54.74
2022-11-05T00:13:51.683Z,54.74
2022-11-05T00:14:53.526Z,54.76
2022-11-05T00:15:55.354Z,54.76
2022-11-05T00:16:57.265Z,54.76
2022-11-05T00:17:59.128Z,54.75
2022-11-05T00:19:00.951Z,54.71
2022-11-05T00:20:02.794Z,54.68
2022-11-05T00:21:04.589Z,54.67
2022-11-05T00:22:06.417Z,54.71
2022-11-05T00:23:08.509Z,54.74
2022-11-05T00:24:10.633Z,54.78
2022-11-05T00:25:12.453Z,54.80
2022-11-05T00:26:14.884Z,54.87
2022-11-05T00:27:16.698Z,54.89
2022-11-05T00:28:18.578Z,54.96
2022-11-05T00:29:20.425Z,54.95
2022-11-05T00:30:22.227Z,54.88
2022-11-05T00:31:24.061Z,54.85
2022-11-05T00:32:25.884Z,54.84
2022-11-05T00:33:27.774Z,54.89
2022-11-05T00:34:29.601Z,54.89
2022-11-05T00:35:31.414Z,54.82
2022-11-05T00:36:33.332Z,54.79
2022-11-05T00:37:35.166Z,54.79
2022-11-05T00:38:37.046Z,54.77
2022-11-05T00:39:38.933Z,54.80
2022-11-05T00:40:40.849Z,54.85
2022-11-05T00:41:42.684Z,54.92
2022-11-05T00:42:44.513Z,55.02
2022-11-05T00:43:46.383Z,55.12
2022-11-05T00:44:48.199Z,55.13
2022-11-05T00:45:50.041Z,55.11
2022-11-05T00:46:55.886Z,55.10
2022-11-05T00:47:55.502Z,55.03
2022-11-05T00:48:57.362Z,55.04
2022-11-05T00:49:59.192Z,55.06
2022-11-05T00:51:01.095Z,55.03
2022-11-05T00:52:02.921Z,55.02
2022-11-05T00:53:04.743Z,55.06
2022-11-05T00:54:06.603Z,55.14
2022-11-05T00:55:08.461Z,55.21
2022-11-05T00:56:10.989Z,55.27
2022-11-05T00:57:12.816Z,55.37
2022-11-05T00:58:14.644Z,55.43
2022-11-05T00:59:16.519Z,55.42
2022-11-05T01:00:18.343Z,55.38
2022-11-05T01:01:21.692Z,55.40
2022-11-05T01:02:23.673Z,55.42
2022-11-05T01:03:25.649Z,55.48
2022-11-05T01:04:27.533Z,55.56
2022-11-05T01:05:29.347Z,55.60
2022-11-05T01:06:31.267Z,55.67
2022-11-05T01:07:33.098Z,55.77
2022-11-05T01:08:34.950Z,55.85
2022-11-05T01:09:36.814Z,55.89
2022-11-05T01:10:38.814Z,55.90
2022-11-05T01:11:40.652Z,55.92
2022-11-05T01:12:42.463Z,55.94
2022-11-05T01:13:44.282Z,55.97
2022-11-05T01:14:46.151Z,56.02
2022-11-05T01:15:47.995Z,56.08
2022-11-05T01:16:49.822Z,56.13
2022-11-05T01:17:51.639Z,56.14
2022-11-05T01:18:53.458Z,56.18
2022-11-05T01:19:55.330Z,56.25
2022-11-05T01:20:57.285Z,56.27
2022-11-05T01:21:59.111Z,56.27
2022-11-05T01:23:00.930Z,56.28
2022-11-05T01:24:02.763Z,56.32
2022-11-05T01:25:05.266Z,56.35
2022-11-05T01:26:08.531Z,56.39
2022-11-05T01:27:11.326Z,56.45
2022-11-05T01:28:13.140Z,56.51
2022-11-05T01:29:15.495Z,56.53
2022-11-05T01:30:17.685Z,56.56
2022-11-05T01:31:19.521Z,56.60
2022-11-05T01:32:21.324Z,56.65
2022-11-05T01:33:23.145Z,56.70
2022-11-05T01:34:25.359Z,56.72
2022-11-05T01:35:27.226Z,56.75
2022-11-05T01:36:29.421Z,56.79
2022-11-05T01:37:31.214Z,56.85
2022-11-05T01:38:33.023Z,56.86
2022-11-05T01:39:35.194Z,56.89
2022-11-05T01:40:37.149Z,56.89
2022-11-05T01:41:39.036Z,56.91
2022-11-05T01:42:40.866Z,56.95
2022-11-05T01:43:45.336Z,56.97
2022-11-05T01:44:47.196Z,56.91
2022-11-05T01:45:49.051Z,56.79
2022-11-05T01:46:51.174Z,56.72
2022-11-05T01:47:53.988Z,56.65
2022-11-05T01:49:01.750Z,56.57
2022-11-05T01:49:59.712Z,56.50
2022-11-05T01:51:04.207Z,56.45
2022-11-05T01:52:06.052Z,56.43
2022-11-05T01:53:08.226Z,56.44
2022-11-05T01:54:10.191Z,56.44
2022-11-05T01:55:12.010Z,56.41
2022-11-05T01:56:16.202Z,56.36
2022-11-05T01:57:18.321Z,56.30
2022-11-05T01:58:20.121Z,56.27
2022-11-05T01:59:21.927Z,56.16
2022-11-05T02:00:23.733Z,56.08
2022-11-05T02:01:25.695Z,56.06
2022-11-05T02:02:27.715Z,55.72
2022-11-05T02:03:29.949Z,55.72
2022-11-05T02:04:32.091Z,55.92
2022-11-05T02:05:33.901Z,55.72
2022-11-05T02:06:35.781Z,55.53
2022-11-05T02:07:38.647Z,55.44
2022-11-05T02:08:40.835Z,55.36
2022-11-05T02:09:43.055Z,55.34
2022-11-05T02:10:44.859Z,55.40
2022-11-05T02:11:47.299Z,55.47
2022-11-05T02:12:49.516Z,55.54
2022-11-05T02:13:51.331Z,55.59
2022-11-05T02:14:53.144Z,55.59
2022-11-05T02:15:56.007Z,55.51
2022-11-05T02:16:58.254Z,55.42
2022-11-05T02:18:00.116Z,55.34
2022-11-05T02:19:02.107Z,55.27
2022-11-05T02:20:04.035Z,55.20
2022-11-05T02:21:05.828Z,55.15
2022-11-05T02:22:08.084Z,55.14
2022-11-05T02:23:10.361Z,55.18
2022-11-05T02:24:12.304Z,55.26
2022-11-05T02:25:14.106Z,55.37
2022-11-05T02:26:18.182Z,55.47
2022-11-05T02:27:20.109Z,55.47
2022-11-05T02:28:22.070Z,55.38
2022-11-05T02:29:23.909Z,55.33
2022-11-05T02:30:25.738Z,55.29
2022-11-05T02:31:27.548Z,55.27
2022-11-05T02:32:30.779Z,55.26
2022-11-05T02:33:32.648Z,55.21
2022-11-05T02:34:34.480Z,55.07
2022-11-05T02:35:36.297Z,54.99
2022-11-05T02:36:38.192Z,54.91
2022-11-05T02:37:40.564Z,54.83
2022-11-05T02:38:42.386Z,54.74
2022-11-05T02:39:44.174Z,54.65
2022-11-05T02:40:46.143Z,54.57
2022-11-05T02:41:48.046Z,54.53
2022-11-05T02:42:50.420Z,54.48
2022-11-05T02:43:52.334Z,54.48
2022-11-05T02:44:54.556Z,54.49
2022-11-05T02:45:56.584Z,54.56
2022-11-05T02:46:58.397Z,54.63
2022-11-05T02:48:00.780Z,54.76
2022-11-05T02:49:02.599Z,54.73
2022-11-05T02:50:04.499Z,54.66
2022-11-05T02:51:06.327Z,54.58
2022-11-05T02:52:08.160Z,54.47
2022-11-05T02:53:10.374Z,54.44
2022-11-05T02:54:13.380Z,54.45
2022-11-05T02:56:37.533Z,54.43
2022-11-05T02:57:39.376Z,54.51
2022-11-05T02:58:41.263Z,54.50
2022-11-05T02:59:43.103Z,54.54
2022-11-05T03:00:45.003Z,54.55
2022-11-05T03:01:47.027Z,54.51
2022-11-05T03:02:49.066Z,54.45
2022-11-05T03:03:51.324Z,54.44
2022-11-05T03:04:53.157Z,54.41
2022-11-05T03:05:54.975Z,54.45
2022-11-05T03:06:56.913Z,54.44
2022-11-05T03:07:58.722Z,54.44
2022-11-05T03:09:00.555Z,54.35
2022-11-05T03:10:02.362Z,54.36
2022-11-05T03:11:04.177Z,54.35
2022-11-05T03:12:05.980Z,54.21
2022-11-05T03:13:07.985Z,54.11
2022-11-05T03:14:10.311Z,54.04
2022-11-05T03:15:12.294Z,54.01
2022-11-05T03:16:14.336Z,53.92
2022-11-05T03:17:16.164Z,53.91
2022-11-05T03:18:17.972Z,53.87
2022-11-05T03:19:19.820Z,53.84
2022-11-05T03:20:21.636Z,53.77
2022-11-05T03:21:23.434Z,53.70
2022-11-05T03:22:25.262Z,53.63
2022-11-05T03:23:27.062Z,53.59
2022-11-05T03:24:28.903Z,53.66
2022-11-05T03:25:30.729Z,53.68
2022-11-05T03:26:32.852Z,53.64
2022-11-05T03:27:37.165Z,53.65
2022-11-05T03:28:39.566Z,53.71
2022-11-05T03:29:41.799Z,53.80
2022-11-05T03:30:44.823Z,53.84
2022-11-05T03:31:47.240Z,53.89
2022-11-05T03:32:49.651Z,53.97
2022-11-05T03:33:51.473Z,54.05
2022-11-05T03:34:53.652Z,54.15
2022-11-05T03:35:56.026Z,54.22
2022-11-05T03:36:57.853Z,54.26
2022-11-05T03:37:59.672Z,54.30
2022-11-05T03:39:01.483Z,54.28
2022-11-05T03:40:03.371Z,54.21
2022-11-05T03:41:05.194Z,54.18
2022-11-05T03:42:07.006Z,54.17
2022-11-05T03:43:09.114Z,54.20
2022-11-05T03:44:11.257Z,54.27
2022-11-05T03:45:13.121Z,54.27
2022-11-05T03:46:15.083Z,54.16
2022-11-05T03:47:16.932Z,54.11
2022-11-05T03:48:18.765Z,54.12
2022-11-05T03:49:20.554Z,54.13
2022-11-05T03:50:22.532Z,54.12
2022-11-05T03:51:24.362Z,54.15
2022-11-05T03:52:26.180Z,54.18
2022-11-05T03:53:27.990Z,54.22
2022-11-05T03:54:29.814Z,54.28
2022-11-05T03:55:31.684Z,54.30
2022-11-05T03:56:33.550Z,54.33
2022-11-05T03:57:35.379Z,54.34
2022-11-05T03:58:37.192Z,54.42
2022-11-05T03:59:39.020Z,54.59
2022-11-05T04:00:41.001Z,54.71
2022-11-05T04:01:43.090Z,54.76
2022-11-05T04:02:45.108Z,54.83
2022-11-05T04:03:47.085Z,54.99
2022-11-05T04:04:48.903Z,55.13
2022-11-05T04:05:50.772Z,55.23
2022-11-05T04:06:52.601Z,55.37
2022-11-05T04:07:54.520Z,55.44
2022-11-05T04:08:56.346Z,55.56
2022-11-05T04:09:58.169Z,55.64
2022-11-05T04:11:00.251Z,55.70
2022-11-05T04:12:02.070Z,55.77
2022-11-05T04:13:03.899Z,55.84
2022-11-05T04:14:05.729Z,55.92
2022-11-05T04:15:07.543Z,55.97
2022-11-05T04:16:09.971Z,56.07
2022-11-05T04:17:11.813Z,56.14
2022-11-05T04:18:13.640Z,56.22
2022-11-05T04:19:15.467Z,56.27
2022-11-05T04:20:17.718Z,56.37
2022-11-05T04:21:19.589Z,56.42
2022-11-05T04:22:21.422Z,56.48
2022-11-05T04:23:23.258Z,56.53
2022-11-05T04:24:25.079Z,56.58
2022-11-05T04:25:26.903Z,56.64
2022-11-05T04:26:28.773Z,56.67
2022-11-05T04:27:30.717Z,56.73
2022-11-05T04:28:32.497Z,56.79
2022-11-05T04:29:34.510Z,56.85
2022-11-05T04:30:36.491Z,56.87
2022-11-05T04:31:38.485Z,56.98
2022-11-05T04:32:40.379Z,57.12
2022-11-05T04:33:42.236Z,57.23
2022-11-05T04:34:44.017Z,57.28
2022-11-05T04:35:45.838Z,57.28
2022-11-05T04:36:47.693Z,57.32
2022-11-05T04:37:49.529Z,57.37
2022-11-05T04:38:51.357Z,57.47
2022-11-05T04:39:53.182Z,57.46
2022-11-05T04:40:54.993Z,57.46
2022-11-05T04:41:56.872Z,57.45
2022-11-05T04:42:58.719Z,57.49
2022-11-05T04:44:00.527Z,57.46
2022-11-05T04:45:02.377Z,57.29
2022-11-05T04:46:04.297Z,57.11
2022-11-05T04:47:06.164Z,56.96
2022-11-05T04:48:08.019Z,56.88
2022-11-05T04:49:09.843Z,56.83
2022-11-05T04:50:11.763Z,56.80
2022-11-05T04:51:13.600Z,56.79
2022-11-05T04:52:15.481Z,56.70
2022-11-05T04:53:17.286Z,56.63
2022-11-05T04:54:19.115Z,56.55
2022-11-05T04:55:20.954Z,56.48
2022-11-05T04:56:22.787Z,56.32
2022-11-05T04:57:24.656Z,56.13
2022-11-05T04:58:26.464Z,56.04
2022-11-05T04:59:28.289Z,56.05
2022-11-05T05:00:30.204Z,55.95
2022-11-05T05:01:32.265Z,55.86
2022-11-05T05:02:34.355Z,55.80
2022-11-05T05:03:36.308Z,55.77
2022-11-05T05:04:38.131Z,55.73
2022-11-05T05:05:39.963Z,55.67
2022-11-05T05:06:41.789Z,55.64
2022-11-05T05:07:43.667Z,55.62
2022-11-05T05:08:45.479Z,55.65
2022-11-05T05:09:47.300Z,55.66
2022-11-05T05:10:49.231Z,55.62
2022-11-05T05:11:51.061Z,55.58
2022-11-05T05:12:52.930Z,55.52
2022-11-05T05:13:54.748Z,55.44
2022-11-05T05:14:56.568Z,55.37
2022-11-05T05:15:58.401Z,55.28
2022-11-05T05:17:00.324Z,55.19
2022-11-05T05:18:02.180Z,55.12
2022-11-05T05:19:04.251Z,55.18
2022-11-05T05:20:06.482Z,55.19
2022-11-05T05:21:08.314Z,55.20
2022-11-05T05:22:10.153Z,55.24
2022-11-05T05:23:12.319Z,55.31
2022-11-05T05:24:14.253Z,55.36
2022-11-05T05:25:16.080Z,55.41
2022-11-05T05:26:18.001Z,55.47
2022-11-05T05:27:19.820Z,55.54
2022-11-05T05:28:21.701Z,55.64
2022-11-05T05:29:23.534Z,55.72
2022-11-05T05:30:25.392Z,55.68
2022-11-05T05:31:27.210Z,55.60
2022-11-05T05:32:29.036Z,55.63
2022-11-05T05:33:30.913Z,55.67
2022-11-05T05:34:32.746Z,55.79
2022-11-05T05:35:34.570Z,55.92
2022-11-05T05:36:36.498Z,55.99
2022-11-05T05:37:38.318Z,56.03
2022-11-05T05:38:40.165Z,56.14
2022-11-05T05:39:41.986Z,56.20
2022-11-05T05:40:43.815Z,56.30
2022-11-05T05:41:45.638Z,56.38
2022-11-05T05:42:47.460Z,56.47
2022-11-05T05:43:49.315Z,56.56
2022-11-05T05:44:51.124Z,56.66
2022-11-05T05:45:52.934Z,56.81
2022-11-05T05:46:54.763Z,56.93
2022-11-05T05:47:56.608Z,57.11
2022-11-05T05:48:58.444Z,57.34
2022-11-05T05:50:01.295Z,57.47
2022-11-05T05:51:04.113Z,57.58
2022-11-05T05:52:05.947Z,57.72
2022-11-05T05:53:07.917Z,57.81
2022-11-05T05:54:09.893Z,57.84
2022-11-05T05:55:13.768Z,57.95
2022-11-05T05:56:16.777Z,58.02
2022-11-05T05:57:18.912Z,58.01
2022-11-05T05:58:20.716Z,57.81
2022-11-05T05:59:22.496Z,57.54
2022-11-05T06:00:24.370Z,57.34
2022-11-05T06:01:26.184Z,57.12
2022-11-05T06:02:28.130Z,56.93
2022-11-05T06:03:30.323Z,56.70
2022-11-05T06:04:32.185Z,56.47
2022-11-05T06:05:34.052Z,56.31
2022-11-05T06:06:36.386Z,56.16
2022-11-05T06:07:38.487Z,56.07
2022-11-05T06:08:40.541Z,56.04
2022-11-05T06:09:42.383Z,55.96
2022-11-05T06:10:44.359Z,55.91
2022-11-05T06:11:46.215Z,55.85
2022-11-05T06:12:48.043Z,55.86
2022-11-05T06:13:49.851Z,55.83
2022-11-05T06:14:51.704Z,55.79
2022-11-05T06:15:53.536Z,55.74
2022-11-05T06:16:55.438Z,55.67
2022-11-05T06:17:57.241Z,55.63
2022-11-05T06:18:59.020Z,55.61
2022-11-05T06:20:00.757Z,55.56
2022-11-05T06:21:02.987Z,55.55
2022-11-05T06:22:04.989Z,55.56
2022-11-05T06:23:06.818Z,55.56
2022-11-05T06:24:10.707Z,55.58
2022-11-05T06:25:12.590Z,55.56
2022-11-05T06:26:14.506Z,55.58
2022-11-05T06:27:16.840Z,55.63
2022-11-05T06:28:18.651Z,55.61
2022-11-05T06:29:20.461Z,55.60
2022-11-05T06:30:24.240Z,55.60
2022-11-05T06:31:26.087Z,55.68
2022-11-05T06:32:27.865Z,55.86
2022-11-05T06:33:29.684Z,56.10
2022-11-05T06:34:31.486Z,56.33
2022-11-05T06:35:34.171Z,56.63
2022-11-05T06:36:36.159Z,56.90
2022-11-05T06:37:38.992Z,57.07
2022-11-05T06:38:40.808Z,57.24
2022-11-05T06:39:42.600Z,57.37
2022-11-05T06:40:44.677Z,57.47
2022-11-05T06:42:11.861Z,57.53
2022-11-05T06:42:50.263Z,57.55
2022-11-05T06:43:52.616Z,57.49
2022-11-05T06:44:54.976Z,57.39
2022-11-05T06:45:57.203Z,57.32
2022-11-05T06:46:59.034Z,57.40
2022-11-05T06:48:00.843Z,57.41
2022-11-05T06:49:02.850Z,57.42
2022-11-05T06:50:04.776Z,57.40
2022-11-05T06:51:06.619Z,57.37
2022-11-05T06:52:08.434Z,57.33
2022-11-05T06:53:10.971Z,57.25
2022-11-05T06:54:12.973Z,57.16
2022-11-05T06:55:14.777Z,57.13
2022-11-05T06:56:16.722Z,57.15
2022-11-05T06:57:18.505Z,57.21
2022-11-05T06:58:20.707Z,57.27
2022-11-05T06:59:23.050Z,57.32
2022-11-05T07:00:24.987Z,57.38
2022-11-05T07:01:26.975Z,57.40
2022-11-05T07:02:28.934Z,57.42
2022-11-05T07:03:30.778Z,57.43
2022-11-05T07:04:32.561Z,57.48
2022-11-05T07:05:34.681Z,57.60
2022-11-05T07:06:37.191Z,57.71
2022-11-05T07:07:39.144Z,57.78
2022-11-05T07:08:40.920Z,57.77
2022-11-05T07:09:43.097Z,57.80
2022-11-05T07:10:45.869Z,57.82
2022-11-05T07:11:47.722Z,57.88
2022-11-05T07:12:49.786Z,57.94
2022-11-05T07:13:51.661Z,58.05
2022-11-05T07:14:54.014Z,58.13
2022-11-05T07:15:56.166Z,58.16
2022-11-05T07:16:58.102Z,58.21
2022-11-05T07:18:00.241Z,58.27
2022-11-05T07:19:02.046Z,58.29
2022-11-05T07:20:03.943Z,58.33
2022-11-05T07:21:05.949Z,58.33
2022-11-05T07:22:07.690Z,58.38
2022-11-05T07:23:09.887Z,58.42
2022-11-05T07:24:11.941Z,58.45
2022-11-05T07:25:13.753Z,58.45
2022-11-05T07:26:16.017Z,58.50
2022-11-05T07:27:18.183Z,58.53
2022-11-05T07:28:19.995Z,58.55
2022-11-05T07:29:21.771Z,58.63
2022-11-05T07:30:23.770Z,58.67
2022-11-05T07:31:25.579Z,58.69
2022-11-05T07:32:27.434Z,58.68
2022-11-05T07:33:33.753Z,58.69
2022-11-05T07:34:32.801Z,58.71
2022-11-05T07:35:34.596Z,58.71
2022-11-05T07:36:36.510Z,58.76
2022-11-05T07:37:38.588Z,58.74
2022-11-05T07:38:40.434Z,58.67
2022-11-05T07:39:43.319Z,58.66
2022-11-05T07:40:45.678Z,58.70
2022-11-05T07:41:47.490Z,58.83
2022-11-05T07:42:49.340Z,58.88
2022-11-05T07:43:51.665Z,58.90
2022-11-05T07:44:53.493Z,58.90
2022-11-05T07:45:55.314Z,58.95
2022-11-05T07:46:57.421Z,58.88
2022-11-05T07:47:59.885Z,58.82
2022-11-05T07:49:02.012Z,58.75
2022-11-05T07:50:04.287Z,58.81
2022-11-05T07:51:06.108Z,58.82
2022-11-05T07:52:08.809Z,58.72
2022-11-05T07:53:10.966Z,58.66
2022-11-05T07:54:13.021Z,58.67
2022-11-05T07:55:15.826Z,58.77
2022-11-05T07:56:17.636Z,58.82
2022-11-05T07:57:19.436Z,58.85
2022-11-05T07:58:21.295Z,58.86
2022-11-05T07:59:23.175Z,58.90
2022-11-05T08:00:24.974Z,58.91
2022-11-05T08:01:27.954Z,58.91
2022-11-05T08:02:29.963Z,58.93
2022-11-05T08:03:31.933Z,58.94
2022-11-05T08:04:33.734Z,58.96
2022-11-05T08:05:35.576Z,58.95
2022-11-05T08:06:37.481Z,58.90
2022-11-05T08:07:39.301Z,58.84
2022-11-05T08:08:41.189Z,58.80
2022-11-05T08:09:43.080Z,58.70
2022-11-05T08:10:45.898Z,58.61
2022-11-05T08:11:47.731Z,58.60
2022-11-05T08:12:49.542Z,58.65
2022-11-05T08:13:52.374Z,58.61
2022-11-05T08:14:54.209Z,58.64
2022-11-05T08:15:56.021Z,58.72
2022-11-05T08:16:57.930Z,58.82
2022-11-05T08:17:59.766Z,58.91
2022-11-05T08:19:01.629Z,58.89
2022-11-05T08:20:03.548Z,58.92
2022-11-05T08:21:05.376Z,58.94
2022-11-05T08:22:07.206Z,58.90
2022-11-05T08:23:09.385Z,58.80
2022-11-05T08:24:11.494Z,58.77
2022-11-05T08:25:13.359Z,58.85
2022-11-05T08:26:15.375Z,58.95
2022-11-05T08:27:17.188Z,58.90
2022-11-05T08:28:19.015Z,58.85
2022-11-05T08:29:20.880Z,58.76
2022-11-05T08:30:22.686Z,58.68
2022-11-05T08:31:24.505Z,58.80
2022-11-05T08:32:26.352Z,58.81
2022-11-05T08:33:28.171Z,58.83
2022-11-05T08:34:30.020Z,58.77
2022-11-05T08:35:31.833Z,58.70
2022-11-05T08:36:33.753Z,58.66
2022-11-05T08:37:35.596Z,58.61
2022-11-05T08:38:37.419Z,58.62
2022-11-05T08:39:39.286Z,58.67
2022-11-05T08:40:41.246Z,58.61
2022-11-05T08:41:43.056Z,58.54
2022-11-05T08:42:44.868Z,58.38
2022-11-05T08:43:46.694Z,58.37
2022-11-05T08:44:48.577Z,58.14
2022-11-05T08:45:50.415Z,57.79
2022-11-05T08:46:52.442Z,57.85
2022-11-05T08:47:54.259Z,57.75
2022-11-05T08:48:56.067Z,57.56
2022-11-05T08:49:57.929Z,57.48
2022-11-05T08:50:59.875Z,57.38
2022-11-05T08:52:01.690Z,57.36
2022-11-05T08:53:03.504Z,57.19
2022-11-05T08:54:05.323Z,57.15
2022-11-05T08:55:07.188Z,57.02
2022-11-05T08:56:09.898Z,56.92
2022-11-05T08:57:11.722Z,56.91
2022-11-05T08:58:13.538Z,57.18
2022-11-05T08:59:15.368Z,57.56
2022-11-05T09:00:17.647Z,57.68
2022-11-05T09:01:19.631Z,57.46
2022-11-05T09:02:21.634Z,57.18
2022-11-05T09:03:23.524Z,57.42
2022-11-05T09:04:25.339Z,57.40
2022-11-05T09:05:27.206Z,57.36
2022-11-05T09:06:29.152Z,57.55
2022-11-05T09:07:30.983Z,57.63
2022-11-05T09:08:32.807Z,57.56
2022-11-05T09:09:34.647Z,57.68
2022-11-05T09:10:36.604Z,57.83
2022-11-05T09:12:05.692Z,57.65
2022-11-05T09:12:42.089Z,57.67
2022-11-05T09:13:43.919Z,57.53
2022-11-05T09:14:45.749Z,57.37
2022-11-05T09:15:47.619Z,57.28
2022-11-05T09:16:49.530Z,57.19
2022-11-05T09:17:51.358Z,57.01
2022-11-05T09:18:53.187Z,56.88
2022-11-05T09:19:55.011Z,56.73
2022-11-05T09:20:56.853Z,56.62
2022-11-05T09:21:58.666Z,56.54
2022-11-05T09:23:00.480Z,56.50
2022-11-05T09:24:02.309Z,56.51
2022-11-05T09:25:04.115Z,56.51
2022-11-05T09:26:06.072Z,56.51
2022-11-05T09:27:07.958Z,56.42
2022-11-05T09:28:12.338Z,56.32
2022-11-05T09:29:14.636Z,56.11
2022-11-05T09:30:16.741Z,56.10
2022-11-05T09:31:18.609Z,55.89
2022-11-05T09:32:20.439Z,55.84
2022-11-05T09:33:22.262Z,55.76
2022-11-05T09:34:24.068Z,55.55
2022-11-05T09:35:25.892Z,55.52
2022-11-05T09:36:27.761Z,55.48
2022-11-05T09:37:29.583Z,55.23
2022-11-05T09:38:31.416Z,55.24
2022-11-05T09:39:33.230Z,55.26
2022-11-05T09:40:37.157Z,54.96
2022-11-05T09:41:39.017Z,54.88
2022-11-05T09:42:40.858Z,54.88
2022-11-05T09:43:42.647Z,54.68
2022-11-05T09:44:44.368Z,54.38
2022-11-05T09:45:46.168Z,54.15
2022-11-05T09:46:48.022Z,54.18
2022-11-05T09:47:49.827Z,53.89
2022-11-05T09:48:51.662Z,53.97
2022-11-05T09:49:53.465Z,54.24
2022-11-05T09:50:55.267Z,54.23
2022-11-05T09:51:57.123Z,54.19
2022-11-05T09:52:58.922Z,54.41
2022-11-05T09:54:01.673Z,54.28
2022-11-05T09:55:03.372Z,54.43
2022-11-05T09:56:05.279Z,54.39
2022-11-05T09:57:07.131Z,54.51
2022-11-05T09:58:08.972Z,54.38
2022-11-05T09:59:10.777Z,54.28
2022-11-05T10:00:14.024Z,54.05
2022-11-05T10:01:16.243Z,53.88
2022-11-05T10:02:18.215Z,53.93
2022-11-05T10:03:20.086Z,54.13
2022-11-05T10:04:21.866Z,54.23
2022-11-05T10:05:23.756Z,54.56
2022-11-05T10:06:25.655Z,54.53
2022-11-05T10:07:27.374Z,54.48
2022-11-05T10:08:29.188Z,54.27
2022-11-05T10:09:31.357Z,54.03
2022-11-05T10:10:37.816Z,54.28
2022-11-05T10:11:37.205Z,54.54
2022-11-05T10:12:39.061Z,54.43
2022-11-05T10:13:40.987Z,54.07
2022-11-05T10:14:42.789Z,53.60
2022-11-05T10:15:44.602Z,53.36
2022-11-05T10:16:46.531Z,53.21
2022-11-05T10:17:48.376Z,52.96
2022-11-05T10:18:50.191Z,53.02
2022-11-05T10:19:52.008Z,53.15
2022-11-05T10:20:53.833Z,52.91
2022-11-05T10:22:10.958Z,53.21
2022-11-05T10:22:59.360Z,53.72
2022-11-05T10:24:01.196Z,53.93
2022-11-05T10:25:03.007Z,53.67
2022-11-05T10:26:04.936Z,53.83
2022-11-05T10:27:07.274Z,54.14
2022-11-05T10:28:09.120Z,54.10
2022-11-05T10:29:11.022Z,53.21
2022-11-05T10:30:13.048Z,53.08
2022-11-05T10:31:14.883Z,52.68
2022-11-05T10:32:16.702Z,52.84
2022-11-05T10:33:18.603Z,52.93
2022-11-05T10:34:20.430Z,52.83
2022-11-05T10:35:22.249Z,52.70
2022-11-05T10:36:24.073Z,52.90
2022-11-05T10:37:25.890Z,52.84
2022-11-05T10:38:27.850Z,52.39
2022-11-05T10:39:29.658Z,52.24
2022-11-05T10:40:31.462Z,52.28
2022-11-05T10:41:33.332Z,52.20
2022-11-05T10:42:35.156Z,51.88
2022-11-05T10:43:37.365Z,51.78
2022-11-05T10:44:39.371Z,51.79
2022-11-05T10:45:41.190Z,51.76
2022-11-05T10:46:43.110Z,51.83
2022-11-05T10:47:44.934Z,51.72
2022-11-05T10:48:46.902Z,51.69
2022-11-05T10:49:48.717Z,51.67
2022-11-05T10:50:50.653Z,51.72
2022-11-05T10:51:52.491Z,51.73
2022-11-05T10:52:54.312Z,51.87
2022-11-05T10:54:01.592Z,51.87
2022-11-05T10:54:59.794Z,51.94
2022-11-05T10:56:01.618Z,51.86
2022-11-05T10:57:03.450Z,51.75
2022-11-05T10:58:05.273Z,51.75
2022-11-05T10:59:11.990Z,51.85
2022-11-05T11:00:11.635Z,51.80
2022-11-05T11:01:13.513Z,51.55
2022-11-05T11:02:15.451Z,51.52
2022-11-05T11:03:17.310Z,51.25
2022-11-05T11:04:19.182Z,51.37
2022-11-05T11:05:20.993Z,51.42
2022-11-05T11:06:22.815Z,51.57
2022-11-05T11:07:24.649Z,51.55
2022-11-05T11:08:26.478Z,51.58
2022-11-05T11:09:28.326Z,51.57
2022-11-05T11:10:30.134Z,51.44
2022-11-05T11:11:31.964Z,51.30
2022-11-05T11:12:36.882Z,51.28
2022-11-05T11:13:37.440Z,51.20
2022-11-05T11:14:39.300Z,51.25
2022-11-05T11:15:41.180Z,51.33
2022-11-05T11:16:43.103Z,51.50
2022-11-05T11:17:44.929Z,51.61
2022-11-05T11:18:46.746Z,51.65
2022-11-05T11:19:48.619Z,51.57
2022-11-05T11:20:50.519Z,51.52
2022-11-05T11:21:52.352Z,51.45
2022-11-05T11:22:54.153Z,51.22
2022-11-05T11:23:55.966Z,51.17
2022-11-05T11:24:57.810Z,51.04
2022-11-05T11:25:59.640Z,51.19
2022-11-05T11:27:01.466Z,51.12
2022-11-05T11:28:03.266Z,51.02
2022-11-05T11:29:05.073Z,50.82
2022-11-05T11:30:07.948Z,50.69
2022-11-05T11:31:09.874Z,50.69
2022-11-05T11:32:11.700Z,50.66
2022-11-05T11:33:13.871Z,50.66
2022-11-05T11:34:15.936Z,50.68
2022-11-05T11:35:17.817Z,50.73
2022-11-05T11:36:19.911Z,50.69
2022-11-05T11:37:21.709Z,50.68
2022-11-05T11:38:23.536Z,50.66
2022-11-05T11:39:25.361Z,50.64
2022-11-05T11:40:27.236Z,50.63
2022-11-05T11:41:29.064Z,50.50
2022-11-05T11:42:30.873Z,50.55
2022-11-05T11:43:32.685Z,50.35
2022-11-05T11:44:34.479Z,50.41
2022-11-05T11:45:36.333Z,50.62
2022-11-05T11:46:38.236Z,50.74
2022-11-05T11:47:40.057Z,51.00
2022-11-05T11:48:41.879Z,51.04
2022-11-05T11:49:43.723Z,51.11
2022-11-05T11:50:45.710Z,51.16
2022-11-05T11:51:50.161Z,51.15
2022-11-05T11:52:51.164Z,50.78
2022-11-05T11:53:52.983Z,50.66
2022-11-05T11:54:54.812Z,50.99
2022-11-05T11:55:56.687Z,51.15
2022-11-05T11:56:58.585Z,51.25
2022-11-05T11:58:00.398Z,51.25
2022-11-05T11:59:02.232Z,51.19
2022-11-05T12:00:09.140Z,51.25
2022-11-05T12:01:07.865Z,51.25
2022-11-05T12:02:09.878Z,51.58
2022-11-05T12:03:11.833Z,51.53
2022-11-05T12:04:13.690Z,51.51
2022-11-05T12:05:15.498Z,51.59
2022-11-05T12:06:17.565Z,51.57
2022-11-05T12:07:19.385Z,51.64
2022-11-05T12:08:21.182Z,51.72
2022-11-05T12:09:22.993Z,51.69
2022-11-05T12:10:24.816Z,51.54
2022-11-05T12:11:26.682Z,51.55
2022-11-05T12:12:28.533Z,51.38
2022-11-05T12:13:30.306Z,51.20
2022-11-05T12:14:32.132Z,51.08
2022-11-05T12:15:33.964Z,50.71
2022-11-05T12:16:35.848Z,50.18
2022-11-05T12:17:37.693Z,50.25
2022-11-05T12:18:39.663Z,50.16
2022-11-05T12:19:41.502Z,49.69
2022-11-05T12:20:43.417Z,49.60
2022-11-05T12:21:53.065Z,49.85
2022-11-05T12:22:48.896Z,49.83
2022-11-05T12:23:50.722Z,49.98
2022-11-05T12:24:52.536Z,50.26
2022-11-05T12:25:54.342Z,50.37
2022-11-05T12:26:57.712Z,50.33
2022-11-05T12:27:59.545Z,50.54
2022-11-05T12:29:18.335Z,50.73
2022-11-05T12:30:06.537Z,50.68
2022-11-05T12:31:08.313Z,50.80
2022-11-05T12:32:10.714Z,51.11
2022-11-05T12:33:13.135Z,51.22
2022-11-05T12:34:15.162Z,51.29
2022-11-05T12:35:16.936Z,51.43
2022-11-05T12:36:19.239Z,51.45
2022-11-05T12:37:21.239Z,51.54
2022-11-05T12:38:24.092Z,51.63
2022-11-05T12:39:25.927Z,51.62
2022-11-05T12:40:27.853Z,51.62
2022-11-05T12:41:29.852Z,51.53
2022-11-05T12:42:32.201Z,51.46
2022-11-05T12:43:34.692Z,51.59
2022-11-05T12:44:37.062Z,51.77
2022-11-05T12:45:38.879Z,51.87
2022-11-05T12:46:40.791Z,51.93
2022-11-05T12:47:43.211Z,52.13
2022-11-05T12:48:45.063Z,52.27
2022-11-05T12:49:46.875Z,52.37
2022-11-05T12:50:48.818Z,52.50
2022-11-05T12:51:50.604Z,52.60
2022-11-05T12:52:52.574Z,52.66
2022-11-05T12:53:54.429Z,52.72
2022-11-05T12:54:56.438Z,52.73
2022-11-05T12:55:58.288Z,52.68
2022-11-05T12:57:00.166Z,52.69
2022-11-05T12:58:02.013Z,52.75
2022-11-05T12:59:04.115Z,52.85
2022-11-05T13:00:06.435Z,52.88
2022-11-05T13:01:09.248Z,52.94
2022-11-05T13:02:11.218Z,52.90
2022-11-05T13:03:14.552Z,52.89
2022-11-05T13:04:17.199Z,52.97
2022-11-05T13:05:19.008Z,53.02
2022-11-05T13:06:20.945Z,53.02
2022-11-05T13:07:23.743Z,53.08
2022-11-05T13:08:26.605Z,52.88
2022-11-05T13:09:29.438Z,52.76
2022-11-05T13:10:31.345Z,52.86
2022-11-05T13:11:34.194Z,52.88
2022-11-05T13:12:38.054Z,52.87
2022-11-05T13:13:39.945Z,52.76
2022-11-05T13:14:42.430Z,52.65
2022-11-05T13:15:45.158Z,52.58
2022-11-05T13:16:47.426Z,52.55
2022-11-05T13:17:49.701Z,52.43
2022-11-05T13:18:51.749Z,52.32
2022-11-05T13:19:53.585Z,52.29